sensor_id;sensor_type;location;lat;lon;timestamp;pressure;altitude;pressure_sealevel;temperature;humidity
69957;BME280;57283;54.816;9.482;2022-12-18T00:01:48;102288.41;;;-5.32;100.00
69957;BME280;57283;54.816;9.482;2022-12-18T00:04:21;102287.03;;;-5.27;100.00
69957;BME280;57283;54.816;9.482;2022-12-18T00:06:49;102283.88;;;-5.23;100.00
69957;BME280;57283;54.816;9.482;2022-12-18T00:09:17;102316.00;;;-5.25;100.00
69957;BME280;57283;54.816;9.482;2022-12-18T00:11:45;102285.84;;;-5.32;100.00
69957;BME280;57283;54.816;9.482;2022-12-18T00:14:13;102297.59;;;-5.21;100.00
69957;BME280;57283;54.816;9.482;2022-12-18T00:16:44;102304.25;;;-5.23;100.00
69957;BME280;57283;54.816;9.482;2022-12-18T00:19:14;102316.38;;;-5.19;100.00
69957;BME280;57283;54.816;9.482;2022-12-18T00:21:42;102280.56;;;-5.22;100.00
69957;BME280;57283;54.816;9.482;2022-12-18T00:24:11;102303.09;;;-5.28;100.00
69957;BME280;57283;54.816;9.482;2022-12-18T00:26:39;102221.69;;;-5.68;100.00
69957;BME280;57283;54.816;9.482;2022-12-18T00:29:10;102287.59;;;-5.31;100.00
69957;BME280;57283;54.816;9.482;2022-12-18T00:31:38;102281.19;;;-5.39;100.00
69957;BME280;57283;54.816;9.482;2022-12-18T00:34:09;102283.09;;;-5.35;100.00
69957;BME280;57283;54.816;9.482;2022-12-18T00:36:37;102288.81;;;-5.39;100.00
69957;BME280;57283;54.816;9.482;2022-12-18T00:39:05;102287.84;;;-5.41;100.00
69957;BME280;57283;54.816;9.482;2022-12-18T00:41:33;102289.81;;;-5.37;100.00
69957;BME280;57283;54.816;9.482;2022-12-18T00:44:19;102273.16;;;-5.45;100.00
69957;BME280;57283;54.816;9.482;2022-12-18T00:46:47;102281.97;;;-5.40;100.00
69957;BME280;57283;54.816;9.482;2022-12-18T00:49:18;102225.63;;;-5.86;100.00
69957;BME280;57283;54.816;9.482;2022-12-18T00:51:46;102279.22;;;-5.43;100.00
69957;BME280;57283;54.816;9.482;2022-12-18T00:54:15;102291.16;;;-5.42;100.00
69957;BME280;57283;54.816;9.482;2022-12-18T00:56:43;102288.13;;;-5.50;100.00
69957;BME280;57283;54.816;9.482;2022-12-18T00:59:15;102291.56;;;-5.49;100.00
69957;BME280;57283;54.816;9.482;2022-12-18T01:01:43;102293.22;;;-5.50;100.00
69957;BME280;57283;54.816;9.482;2022-12-18T01:04:11;102304.97;;;-5.52;100.00
69957;BME280;57283;54.816;9.482;2022-12-18T01:06:41;102296.44;;;-5.52;100.00
69957;BME280;57283;54.816;9.482;2022-12-18T01:09:10;102302.34;;;-5.53;100.00
69957;BME280;57283;54.816;9.482;2022-12-18T01:11:37;102293.75;;;-5.55;100.00
69957;BME280;57283;54.816;9.482;2022-12-18T01:14:05;102311.56;;;-5.55;100.00
69957;BME280;57283;54.816;9.482;2022-12-18T01:16:33;102305.84;;;-5.51;100.00
69957;BME280;57283;54.816;9.482;2022-12-18T01:19:01;102274.53;;;-5.64;100.00
69957;BME280;57283;54.816;9.482;2022-12-18T01:21:29;102290.41;;;-5.54;100.00
69957;BME280;57283;54.816;9.482;2022-12-18T01:23:59;102284.69;;;-5.50;100.00
69957;BME280;57283;54.816;9.482;2022-12-18T01:26:27;102291.66;;;-5.48;100.00
69957;BME280;57283;54.816;9.482;2022-12-18T01:28:57;102295.88;;;-5.48;100.00
69957;BME280;57283;54.816;9.482;2022-12-18T01:31:26;102240.00;;;-5.86;100.00
69957;BME280;57283;54.816;9.482;2022-12-18T01:33:55;102305.38;;;-5.46;100.00
69957;BME280;57283;54.816;9.482;2022-12-18T01:36:24;102314.66;;;-5.46;100.00
69957;BME280;57283;54.816;9.482;2022-12-18T01:38:53;102319.75;;;-5.46;100.00
69957;BME280;57283;54.816;9.482;2022-12-18T01:41:25;102321.31;;;-5.48;100.00
69957;BME280;57283;54.816;9.482;2022-12-18T01:43:54;102326.59;;;-5.45;100.00
69957;BME280;57283;54.816;9.482;2022-12-18T01:46:25;102288.06;;;-5.78;100.00
69957;BME280;57283;54.816;9.482;2022-12-18T01:48:56;102330.22;;;-5.42;100.00
69957;BME280;57283;54.816;9.482;2022-12-18T01:51:25;102319.06;;;-5.44;100.00
69957;BME280;57283;54.816;9.482;2022-12-18T01:53:55;102326.13;;;-5.40;100.00
69957;BME280;57283;54.816;9.482;2022-12-18T01:56:26;102317.09;;;-5.48;100.00
69957;BME280;57283;54.816;9.482;2022-12-18T01:58:58;102331.69;;;-5.45;100.00
69957;BME280;57283;54.816;9.482;2022-12-18T02:01:29;102337.78;;;-5.43;100.00
69957;BME280;57283;54.816;9.482;2022-12-18T02:04:19;102328.56;;;-5.41;100.00
69957;BME280;57283;54.816;9.482;2022-12-18T02:06:51;102343.84;;;-5.41;100.00
69957;BME280;57283;54.816;9.482;2022-12-18T02:09:20;102327.00;;;-5.39;100.00
69957;BME280;57283;54.816;9.482;2022-12-18T02:12:00;102330.34;;;-5.40;100.00
69957;BME280;57283;54.816;9.482;2022-12-18T02:14:37;102332.69;;;-5.43;100.00
69957;BME280;57283;54.816;9.482;2022-12-18T02:17:09;102330.13;;;-5.43;100.00
69957;BME280;57283;54.816;9.482;2022-12-18T02:20:02;102319.56;;;-5.49;100.00
69957;BME280;57283;54.816;9.482;2022-12-18T02:22:40;102318.56;;;-5.51;100.00
69957;BME280;57283;54.816;9.482;2022-12-18T02:25:24;102340.41;;;-5.42;100.00
69957;BME280;57283;54.816;9.482;2022-12-18T02:27:59;102338.56;;;-5.44;100.00
69957;BME280;57283;54.816;9.482;2022-12-18T02:30:31;102335.03;;;-5.46;100.00
69957;BME280;57283;54.816;9.482;2022-12-18T02:33:02;102337.00;;;-5.42;100.00
69957;BME280;57283;54.816;9.482;2022-12-18T02:35:32;102344.31;;;-5.47;100.00
69957;BME280;57283;54.816;9.482;2022-12-18T02:38:02;102332.97;;;-5.52;100.00
69957;BME280;57283;54.816;9.482;2022-12-18T02:40:31;102339.03;;;-5.50;100.00
69957;BME280;57283;54.816;9.482;2022-12-18T02:43:07;102304.69;;;-5.70;100.00
69957;BME280;57283;54.816;9.482;2022-12-18T02:45:35;102337.97;;;-5.53;100.00
69957;BME280;57283;54.816;9.482;2022-12-18T02:48:03;102332.19;;;-5.64;100.00
69957;BME280;57283;54.816;9.482;2022-12-18T02:50:36;102334.25;;;-5.58;100.00
69957;BME280;57283;54.816;9.482;2022-12-18T02:53:11;102340.22;;;-5.58;100.00
69957;BME280;57283;54.816;9.482;2022-12-18T02:55:53;102337.38;;;-5.63;100.00
69957;BME280;57283;54.816;9.482;2022-12-18T02:58:30;102336.50;;;-5.63;100.00
69957;BME280;57283;54.816;9.482;2022-12-18T03:01:05;102352.75;;;-5.61;100.00
69957;BME280;57283;54.816;9.482;2022-12-18T03:03:40;102354.41;;;-5.62;100.00
69957;BME280;57283;54.816;9.482;2022-12-18T03:06:12;102353.22;;;-5.67;100.00
69957;BME280;57283;54.816;9.482;2022-12-18T03:08:44;102309.03;;;-5.95;100.00
69957;BME280;57283;54.816;9.482;2022-12-18T03:11:15;102355.66;;;-5.68;100.00
69957;BME280;57283;54.816;9.482;2022-12-18T03:14:06;102351.47;;;-5.68;100.00
69957;BME280;57283;54.816;9.482;2022-12-18T03:16:35;102349.69;;;-5.69;100.00
69957;BME280;57283;54.816;9.482;2022-12-18T03:19:07;102335.13;;;-5.71;100.00
69957;BME280;57283;54.816;9.482;2022-12-18T03:21:41;102330.53;;;-5.64;100.00
69957;BME280;57283;54.816;9.482;2022-12-18T03:24:11;102338.16;;;-5.64;100.00
69957;BME280;57283;54.816;9.482;2022-12-18T03:26:42;102322.91;;;-5.77;100.00
69957;BME280;57283;54.816;9.482;2022-12-18T03:29:17;102335.41;;;-5.67;100.00
69957;BME280;57283;54.816;9.482;2022-12-18T03:31:49;102329.75;;;-5.63;100.00
69957;BME280;57283;54.816;9.482;2022-12-18T03:34:22;102337.38;;;-5.63;100.00
69957;BME280;57283;54.816;9.482;2022-12-18T03:36:51;102331.88;;;-5.69;100.00
69957;BME280;57283;54.816;9.482;2022-12-18T03:39:19;102316.44;;;-5.72;100.00
69957;BME280;57283;54.816;9.482;2022-12-18T03:41:51;102330.53;;;-5.64;100.00
69957;BME280;57283;54.816;9.482;2022-12-18T03:44:28;102325.25;;;-5.67;100.00
69957;BME280;57283;54.816;9.482;2022-12-18T03:47:01;102342.84;;;-5.70;100.00
69957;BME280;57283;54.816;9.482;2022-12-18T03:49:35;102335.31;;;-5.68;100.00
69957;BME280;57283;54.816;9.482;2022-12-18T03:52:09;102336.69;;;-5.73;100.00
69957;BME280;57283;54.816;9.482;2022-12-18T03:54:38;102292.88;;;-6.09;100.00
69957;BME280;57283;54.816;9.482;2022-12-18T03:57:12;102346.38;;;-5.81;100.00
69957;BME280;57283;54.816;9.482;2022-12-18T03:59:43;102345.69;;;-5.78;100.00
69957;BME280;57283;54.816;9.482;2022-12-18T04:02:13;102362.72;;;-5.77;100.00
69957;BME280;57283;54.816;9.482;2022-12-18T04:04:44;102362.03;;;-5.88;100.00
69957;BME280;57283;54.816;9.482;2022-12-18T04:07:14;102371.44;;;-5.87;100.00
69957;BME280;57283;54.816;9.482;2022-12-18T04:09:45;102385.97;;;-5.84;100.00
69957;BME280;57283;54.816;9.482;2022-12-18T04:12:13;102384.16;;;-5.87;100.00
69957;BME280;57283;54.816;9.482;2022-12-18T04:14:42;102393.50;;;-5.86;100.00
69957;BME280;57283;54.816;9.482;2022-12-18T04:17:11;102398.47;;;-5.89;100.00
69957;BME280;57283;54.816;9.482;2022-12-18T04:19:39;102271.66;;;-6.60;100.00
69957;BME280;57283;54.816;9.482;2022-12-18T04:22:09;102408.44;;;-5.92;100.00
69957;BME280;57283;54.816;9.482;2022-12-18T04:24:37;102397.66;;;-5.88;100.00
69957;BME280;57283;54.816;9.482;2022-12-18T04:27:05;102391.41;;;-5.93;100.00
69957;BME280;57283;54.816;9.482;2022-12-18T04:29:33;102399.13;;;-5.91;100.00
69957;BME280;57283;54.816;9.482;2022-12-18T04:32:02;102395.28;;;-5.98;100.00
69957;BME280;57283;54.816;9.482;2022-12-18T04:34:30;102395.59;;;-5.93;100.00
69957;BME280;57283;54.816;9.482;2022-12-18T04:36:58;102403.13;;;-5.95;100.00
69957;BME280;57283;54.816;9.482;2022-12-18T04:39:26;102397.84;;;-5.98;100.00
69957;BME280;57283;54.816;9.482;2022-12-18T04:41:53;102399.19;;;-6.03;100.00
69957;BME280;57283;54.816;9.482;2022-12-18T04:44:21;102378.91;;;-6.15;100.00
69957;BME280;57283;54.816;9.482;2022-12-18T04:46:49;102387.75;;;-6.10;100.00
69957;BME280;57283;54.816;9.482;2022-12-18T04:49:19;102380.00;;;-6.11;100.00
69957;BME280;57283;54.816;9.482;2022-12-18T04:51:46;102388.63;;;-6.09;100.00
69957;BME280;57283;54.816;9.482;2022-12-18T04:54:14;102370.09;;;-6.20;100.00
69957;BME280;57283;54.816;9.482;2022-12-18T04:56:42;102389.97;;;-6.14;100.00
69957;BME280;57283;54.816;9.482;2022-12-18T04:59:10;102396.50;;;-6.18;100.00
69957;BME280;57283;54.816;9.482;2022-12-18T05:01:38;102405.00;;;-6.17;100.00
69957;BME280;57283;54.816;9.482;2022-12-18T05:04:06;102405.78;;;-6.18;100.00
69957;BME280;57283;54.816;9.482;2022-12-18T05:06:35;102415.47;;;-6.26;100.00
69957;BME280;57283;54.816;9.482;2022-12-18T05:09:03;102410.81;;;-6.31;100.00
69957;BME280;57283;54.816;9.482;2022-12-18T05:11:31;102415.91;;;-6.31;100.00
69957;BME280;57283;54.816;9.482;2022-12-18T05:13:59;102412.16;;;-6.37;100.00
69957;BME280;57283;54.816;9.482;2022-12-18T05:16:27;102419.22;;;-6.32;100.00
69957;BME280;57283;54.816;9.482;2022-12-18T05:18:55;102413.75;;;-6.39;100.00
69957;BME280;57283;54.816;9.482;2022-12-18T05:21:23;102422.16;;;-6.40;100.00
69957;BME280;57283;54.816;9.482;2022-12-18T05:23:52;102390.41;;;-6.58;100.00
69957;BME280;57283;54.816;9.482;2022-12-18T05:26:19;102430.75;;;-6.38;100.00
69957;BME280;57283;54.816;9.482;2022-12-18T05:28:47;102409.34;;;-6.53;100.00
69957;BME280;57283;54.816;9.482;2022-12-18T05:31:15;102399.19;;;-6.53;100.00
69957;BME280;57283;54.816;9.482;2022-12-18T05:33:43;102424.97;;;-6.35;100.00
69957;BME280;57283;54.816;9.482;2022-12-18T05:36:11;102427.06;;;-6.29;100.00
69957;BME280;57283;54.816;9.482;2022-12-18T05:38:40;102410.00;;;-6.44;100.00
69957;BME280;57283;54.816;9.482;2022-12-18T05:41:09;102428.72;;;-6.30;100.00
69957;BME280;57283;54.816;9.482;2022-12-18T05:43:38;102407.56;;;-6.42;100.00
69957;BME280;57283;54.816;9.482;2022-12-18T05:46:10;102431.16;;;-6.31;100.00
69957;BME280;57283;54.816;9.482;2022-12-18T05:48:39;102429.41;;;-6.32;100.00
69957;BME280;57283;54.816;9.482;2022-12-18T05:51:09;102398.41;;;-6.52;100.00
69957;BME280;57283;54.816;9.482;2022-12-18T05:53:37;102444.19;;;-6.27;100.00
69957;BME280;57283;54.816;9.482;2022-12-18T05:56:12;102425.63;;;-6.26;100.00
69957;BME280;57283;54.816;9.482;2022-12-18T05:58:41;102426.28;;;-6.28;100.00
69957;BME280;57283;54.816;9.482;2022-12-18T06:01:11;102430.28;;;-6.32;100.00
69957;BME280;57283;54.816;9.482;2022-12-18T06:03:39;102427.84;;;-6.30;100.00
69957;BME280;57283;54.816;9.482;2022-12-18T06:06:15;102427.19;;;-6.28;100.00
69957;BME280;57283;54.816;9.482;2022-12-18T06:08:44;102365.44;;;-6.63;100.00
69957;BME280;57283;54.816;9.482;2022-12-18T06:11:16;102423.44;;;-6.33;100.00
69957;BME280;57283;54.816;9.482;2022-12-18T06:13:44;102434.91;;;-6.26;100.00
69957;BME280;57283;54.816;9.482;2022-12-18T06:16:12;102414.88;;;-6.47;100.00
69957;BME280;57283;54.816;9.482;2022-12-18T06:18:40;102436.25;;;-6.31;100.00
69957;BME280;57283;54.816;9.482;2022-12-18T06:21:08;102422.16;;;-6.40;100.00
69957;BME280;57283;54.816;9.482;2022-12-18T06:23:36;102408.25;;;-6.45;100.00
69957;BME280;57283;54.816;9.482;2022-12-18T06:26:05;102443.31;;;-6.27;100.00
69957;BME280;57283;54.816;9.482;2022-12-18T06:28:35;102420.59;;;-6.38;100.00
69957;BME280;57283;54.816;9.482;2022-12-18T06:31:04;102442.66;;;-6.25;100.00
69957;BME280;57283;54.816;9.482;2022-12-18T06:33:32;102425.19;;;-6.32;100.00
69957;BME280;57283;54.816;9.482;2022-12-18T06:36:01;102428.28;;;-6.36;100.00
69957;BME280;57283;54.816;9.482;2022-12-18T06:38:32;102434.25;;;-6.36;100.00
69957;BME280;57283;54.816;9.482;2022-12-18T06:41:00;102434.09;;;-6.39;100.00
69957;BME280;57283;54.816;9.482;2022-12-18T06:43:34;102473.38;;;-6.34;100.00
69957;BME280;57283;54.816;9.482;2022-12-18T06:46:04;102465.53;;;-6.37;100.00
69957;BME280;57283;54.816;9.482;2022-12-18T06:48:32;102402.38;;;-6.80;100.00
69957;BME280;57283;54.816;9.482;2022-12-18T06:51:01;102452.22;;;-6.46;100.00
69957;BME280;57283;54.816;9.482;2022-12-18T06:53:29;102450.59;;;-6.57;100.00
69957;BME280;57283;54.816;9.482;2022-12-18T06:56:00;102479.78;;;-6.27;100.00
69957;BME280;57283;54.816;9.482;2022-12-18T06:58:36;102447.47;;;-6.53;100.00
69957;BME280;57283;54.816;9.482;2022-12-18T07:01:06;102467.47;;;-6.46;100.00
69957;BME280;57283;54.816;9.482;2022-12-18T07:03:34;102483.16;;;-6.40;100.00
69957;BME280;57283;54.816;9.482;2022-12-18T07:06:03;102486.69;;;-6.49;100.00
69957;BME280;57283;54.816;9.482;2022-12-18T07:08:32;102499.06;;;-6.42;100.00
69957;BME280;57283;54.816;9.482;2022-12-18T07:11:03;102466.50;;;-6.59;100.00
69957;BME280;57283;54.816;9.482;2022-12-18T07:13:31;102510.56;;;-6.47;100.00
69957;BME280;57283;54.816;9.482;2022-12-18T07:16:05;102517.72;;;-6.42;100.00
69957;BME280;57283;54.816;9.482;2022-12-18T07:18:42;102515.75;;;-6.46;100.00
69957;BME280;57283;54.816;9.482;2022-12-18T07:21:14;102467.63;;;-6.68;100.00
69957;BME280;57283;54.816;9.482;2022-12-18T07:23:42;102528.91;;;-6.40;100.00
69957;BME280;57283;54.816;9.482;2022-12-18T07:26:12;102504.47;;;-6.49;100.00
69957;BME280;57283;54.816;9.482;2022-12-18T07:28:41;102493.78;;;-6.57;100.00
69957;BME280;57283;54.816;9.482;2022-12-18T07:31:13;102507.50;;;-6.55;100.00
69957;BME280;57283;54.816;9.482;2022-12-18T07:33:42;102471.50;;;-6.73;100.00
69957;BME280;57283;54.816;9.482;2022-12-18T07:36:11;102539.25;;;-6.37;100.00
69957;BME280;57283;54.816;9.482;2022-12-18T07:38:39;102535.41;;;-6.43;100.00
69957;BME280;57283;54.816;9.482;2022-12-18T07:41:08;102538.59;;;-6.34;100.00
69957;BME280;57283;54.816;9.482;2022-12-18T07:43:37;102523.16;;;-6.49;100.00
69957;BME280;57283;54.816;9.482;2022-12-18T07:46:08;102543.78;;;-6.32;100.00
69957;BME280;57283;54.816;9.482;2022-12-18T07:48:40;102547.09;;;-6.34;100.00
69957;BME280;57283;54.816;9.482;2022-12-18T07:51:11;102535.75;;;-6.39;100.00
69957;BME280;57283;54.816;9.482;2022-12-18T07:53:41;102501.09;;;-6.61;100.00
69957;BME280;57283;54.816;9.482;2022-12-18T07:56:11;102553.41;;;-6.28;100.00
69957;BME280;57283;54.816;9.482;2022-12-18T07:58:57;102553.84;;;-6.22;100.00
69957;BME280;57283;54.816;9.482;2022-12-18T08:01:25;102518.72;;;-6.40;100.00
69957;BME280;57283;54.816;9.482;2022-12-18T08:03:54;102552.47;;;-6.17;100.00
69957;BME280;57283;54.816;9.482;2022-12-18T08:06:23;102551.38;;;-6.09;100.00
69957;BME280;57283;54.816;9.482;2022-12-18T08:08:52;102542.41;;;-6.04;100.00
69957;BME280;57283;54.816;9.482;2022-12-18T08:11:20;102537.16;;;-5.94;100.00
69957;BME280;57283;54.816;9.482;2022-12-18T08:13:48;102544.41;;;-5.87;100.00
69957;BME280;57283;54.816;9.482;2022-12-18T08:16:17;102516.16;;;-5.78;100.00
69957;BME280;57283;54.816;9.482;2022-12-18T08:18:45;102534.38;;;-5.34;100.00
69957;BME280;57283;54.816;9.482;2022-12-18T08:21:16;102518.56;;;-4.90;100.00
69957;BME280;57283;54.816;9.482;2022-12-18T08:23:47;102543.84;;;-4.80;100.00
69957;BME280;57283;54.816;9.482;2022-12-18T08:26:17;102480.16;;;-5.07;100.00
69957;BME280;57283;54.816;9.482;2022-12-18T08:28:46;102526.75;;;-4.42;100.00
69957;BME280;57283;54.816;9.482;2022-12-18T08:31:15;102483.06;;;-4.61;100.00
69957;BME280;57283;54.816;9.482;2022-12-18T08:33:43;102527.84;;;-4.38;100.00
69957;BME280;57283;54.816;9.482;2022-12-18T08:36:12;102512.75;;;-4.48;100.00
69957;BME280;57283;54.816;9.482;2022-12-18T08:38:41;102488.16;;;-4.61;100.00
69957;BME280;57283;54.816;9.482;2022-12-18T08:41:11;102498.47;;;-4.32;100.00
69957;BME280;57283;54.816;9.482;2022-12-18T08:43:39;102503.03;;;-3.85;100.00
69957;BME280;57283;54.816;9.482;2022-12-18T08:46:26;102492.88;;;-3.41;100.00
69957;BME280;57283;54.816;9.482;2022-12-18T08:48:55;102505.28;;;-2.57;100.00
69957;BME280;57283;54.816;9.482;2022-12-18T08:51:23;102483.28;;;-2.23;100.00
69957;BME280;57283;54.816;9.482;2022-12-18T08:53:52;102433.94;;;-2.04;100.00
69957;BME280;57283;54.816;9.482;2022-12-18T08:56:20;102502.31;;;-1.01;100.00
69957;BME280;57283;54.816;9.482;2022-12-18T08:58:51;102503.84;;;-0.87;100.00
69957;BME280;57283;54.816;9.482;2022-12-18T09:01:19;102477.59;;;-0.99;100.00
69957;BME280;57283;54.816;9.482;2022-12-18T09:03:48;102467.66;;;-0.19;100.00
69957;BME280;57283;54.816;9.482;2022-12-18T09:06:17;102494.56;;;0.28;100.00
69957;BME280;57283;54.816;9.482;2022-12-18T09:08:45;102482.47;;;1.29;100.00
69957;BME280;57283;54.816;9.482;2022-12-18T09:11:18;102483.72;;;2.33;100.00
69957;BME280;57283;54.816;9.482;2022-12-18T09:13:46;102491.66;;;1.91;100.00
69957;BME280;57283;54.816;9.482;2022-12-18T09:16:14;102501.50;;;3.28;100.00
69957;BME280;57283;54.816;9.482;2022-12-18T09:18:42;102479.78;;;3.22;100.00
69957;BME280;57283;54.816;9.482;2022-12-18T09:21:12;102501.97;;;3.43;100.00
69957;BME280;57283;54.816;9.482;2022-12-18T09:23:40;102510.56;;;3.42;100.00
69957;BME280;57283;54.816;9.482;2022-12-18T09:26:09;102507.22;;;4.05;100.00
69957;BME280;57283;54.816;9.482;2022-12-18T09:28:38;102488.59;;;3.57;98.14
69957;BME280;57283;54.816;9.482;2022-12-18T09:31:07;102501.22;;;4.06;100.00
69957;BME280;57283;54.816;9.482;2022-12-18T09:33:35;102465.47;;;2.77;100.00
69957;BME280;57283;54.816;9.482;2022-12-18T09:36:06;102508.13;;;3.20;100.00
69957;BME280;57283;54.816;9.482;2022-12-18T09:38:34;102484.56;;;4.59;91.30
69957;BME280;57283;54.816;9.482;2022-12-18T09:41:05;102490.88;;;5.80;79.16
69957;BME280;57283;54.816;9.482;2022-12-18T09:43:40;102484.81;;;3.45;91.84
69957;BME280;57283;54.816;9.482;2022-12-18T09:46:19;102494.09;;;3.12;100.00
69957;BME280;57283;54.816;9.482;2022-12-18T09:48:54;102477.84;;;2.37;100.00
69957;BME280;57283;54.816;9.482;2022-12-18T09:51:25;102498.66;;;3.47;100.00
69957;BME280;57283;54.816;9.482;2022-12-18T09:53:57;102507.38;;;4.09;100.00
69957;BME280;57283;54.816;9.482;2022-12-18T09:56:28;102504.09;;;4.46;87.54
69957;BME280;57283;54.816;9.482;2022-12-18T09:59:00;102513.63;;;2.53;100.00
69957;BME280;57283;54.816;9.482;2022-12-18T10:01:29;102478.16;;;2.46;100.00
69957;BME280;57283;54.816;9.482;2022-12-18T10:04:09;102492.78;;;4.43;100.00
69957;BME280;57283;54.816;9.482;2022-12-18T10:06:42;102500.66;;;6.35;62.88
69957;BME280;57283;54.816;9.482;2022-12-18T10:09:16;102459.34;;;3.88;88.98
69957;BME280;57283;54.816;9.482;2022-12-18T10:11:55;102511.41;;;4.30;84.66
69957;BME280;57283;54.816;9.482;2022-12-18T10:14:34;102524.25;;;2.37;100.00
69957;BME280;57283;54.816;9.482;2022-12-18T10:17:14;102529.56;;;1.71;100.00
69957;BME280;57283;54.816;9.482;2022-12-18T10:19:48;102495.06;;;1.90;100.00
69957;BME280;57283;54.816;9.482;2022-12-18T10:22:25;102513.34;;;1.74;100.00
69957;BME280;57283;54.816;9.482;2022-12-18T10:25:02;102481.13;;;0.75;100.00
69957;BME280;57283;54.816;9.482;2022-12-18T10:27:32;102538.06;;;1.05;100.00
69957;BME280;57283;54.816;9.482;2022-12-18T10:30:12;102542.09;;;0.78;100.00
69957;BME280;57283;54.816;9.482;2022-12-18T10:32:41;102547.34;;;0.21;100.00
69957;BME280;57283;54.816;9.482;2022-12-18T10:35:17;102531.63;;;0.33;100.00
69957;BME280;57283;54.816;9.482;2022-12-18T10:38:06;102534.63;;;0.44;100.00
69957;BME280;57283;54.816;9.482;2022-12-18T10:40:50;102539.91;;;0.08;100.00
69957;BME280;57283;54.816;9.482;2022-12-18T10:43:23;102540.94;;;0.12;100.00
69957;BME280;57283;54.816;9.482;2022-12-18T10:46:02;102496.84;;;-0.17;100.00
69957;BME280;57283;54.816;9.482;2022-12-18T10:48:34;102518.78;;;0.14;100.00
69957;BME280;57283;54.816;9.482;2022-12-18T10:51:05;102525.00;;;-0.55;100.00
69957;BME280;57283;54.816;9.482;2022-12-18T10:53:40;102509.72;;;-0.89;100.00
69957;BME280;57283;54.816;9.482;2022-12-18T10:56:09;102527.88;;;-0.85;100.00
69957;BME280;57283;54.816;9.482;2022-12-18T10:58:38;102529.78;;;-0.81;100.00
69957;BME280;57283;54.816;9.482;2022-12-18T11:01:11;102534.47;;;-0.72;100.00
69957;BME280;57283;54.816;9.482;2022-12-18T11:03:40;102445.94;;;-0.82;100.00
69957;BME280;57283;54.816;9.482;2022-12-18T11:06:11;102520.88;;;-0.15;100.00
69957;BME280;57283;54.816;9.482;2022-12-18T11:08:41;102541.66;;;-0.10;100.00
69957;BME280;57283;54.816;9.482;2022-12-18T11:11:17;102497.28;;;0.12;100.00
69957;BME280;57283;54.816;9.482;2022-12-18T11:13:55;102529.19;;;0.17;100.00
69957;BME280;57283;54.816;9.482;2022-12-18T11:16:28;102481.22;;;-0.41;100.00
69957;BME280;57283;54.816;9.482;2022-12-18T11:19:13;102529.72;;;0.10;100.00
69957;BME280;57283;54.816;9.482;2022-12-18T11:21:42;102501.97;;;-0.17;100.00
69957;BME280;57283;54.816;9.482;2022-12-18T11:24:20;102495.78;;;-0.22;100.00
69957;BME280;57283;54.816;9.482;2022-12-18T11:26:48;102511.91;;;-0.24;100.00
69957;BME280;57283;54.816;9.482;2022-12-18T11:29:30;102510.91;;;-0.46;100.00
69957;BME280;57283;54.816;9.482;2022-12-18T11:32:34;102525.09;;;-0.72;100.00
69957;BME280;57283;54.816;9.482;2022-12-18T11:35:11;102492.72;;;-1.73;100.00
69957;BME280;57283;54.816;9.482;2022-12-18T11:37:43;102504.75;;;-1.38;100.00
69957;BME280;57283;54.816;9.482;2022-12-18T11:40:15;102526.16;;;-1.20;100.00
69957;BME280;57283;54.816;9.482;2022-12-18T11:42:49;102481.16;;;-1.65;100.00
69957;BME280;57283;54.816;9.482;2022-12-18T11:45:25;102519.59;;;-1.31;100.00
69957;BME280;57283;54.816;9.482;2022-12-18T11:47:59;102509.50;;;-1.62;100.00
69957;BME280;57283;54.816;9.482;2022-12-18T11:50:33;102499.44;;;-1.75;100.00
69957;BME280;57283;54.816;9.482;2022-12-18T11:53:10;102505.16;;;-1.47;100.00
69957;BME280;57283;54.816;9.482;2022-12-18T11:55:41;102460.06;;;-1.77;100.00
69957;BME280;57283;54.816;9.482;2022-12-18T11:58:17;102457.69;;;-1.90;100.00
69957;BME280;57283;54.816;9.482;2022-12-18T12:01:03;102518.19;;;-1.42;100.00
69957;BME280;57283;54.816;9.482;2022-12-18T12:03:55;102479.94;;;-1.21;100.00
69957;BME280;57283;54.816;9.482;2022-12-18T12:06:35;102494.31;;;-0.72;100.00
69957;BME280;57283;54.816;9.482;2022-12-18T12:09:14;102506.50;;;-0.67;100.00
69957;BME280;57283;54.816;9.482;2022-12-18T12:11:59;102497.53;;;-0.76;100.00
69957;BME280;57283;54.816;9.482;2022-12-18T12:14:44;102477.81;;;-1.12;100.00
69957;BME280;57283;54.816;9.482;2022-12-18T12:17:24;102480.66;;;-1.24;100.00
69957;BME280;57283;54.816;9.482;2022-12-18T12:20:02;102502.38;;;-1.33;100.00
69957;BME280;57283;54.816;9.482;2022-12-18T12:22:42;102490.28;;;-1.20;100.00
69957;BME280;57283;54.816;9.482;2022-12-18T12:25:21;102411.31;;;-1.45;100.00
69957;BME280;57283;54.816;9.482;2022-12-18T12:28:02;102454.47;;;-1.18;100.00
69957;BME280;57283;54.816;9.482;2022-12-18T12:30:41;102473.97;;;-1.72;100.00
69957;BME280;57283;54.816;9.482;2022-12-18T12:33:20;102429.59;;;-1.89;100.00
69957;BME280;57283;54.816;9.482;2022-12-18T12:36:00;102414.16;;;-1.90;100.00
69957;BME280;57283;54.816;9.482;2022-12-18T12:38:34;102451.06;;;-2.03;100.00
69957;BME280;57283;54.816;9.482;2022-12-18T12:41:06;102441.59;;;-1.88;100.00
69957;BME280;57283;54.816;9.482;2022-12-18T12:43:58;102439.50;;;-1.79;100.00
69957;BME280;57283;54.816;9.482;2022-12-18T12:46:27;102433.81;;;-1.73;100.00
69957;BME280;57283;54.816;9.482;2022-12-18T12:49:01;102423.66;;;-1.71;100.00
69957;BME280;57283;54.816;9.482;2022-12-18T12:51:34;102414.00;;;-2.09;100.00
69957;BME280;57283;54.816;9.482;2022-12-18T12:54:08;102427.00;;;-1.72;100.00
69957;BME280;57283;54.816;9.482;2022-12-18T12:56:47;102433.69;;;-2.57;100.00
69957;BME280;57283;54.816;9.482;2022-12-18T12:59:23;102441.84;;;-1.99;100.00
69957;BME280;57283;54.816;9.482;2022-12-18T13:01:58;102418.94;;;-1.96;100.00
69957;BME280;57283;54.816;9.482;2022-12-18T13:04:35;102437.66;;;-1.81;100.00